Time;durP1;ratioP1;P1;durP2;ratioP2;P2;SDS_P1;SDS_P2;PMS_P1;PMS_P2;Temp;Humidity;BMP_temperature;BMP_pressure;BME280_temperature;BME280_humidity;BME280_pressure;Samples;Min_cycle;Max_cycle;Signal;HPM_P1;HPM_P2
2021/11/18 00:02:17;;;;;;;;;;;4.50;99.90;;;;;;5090778;28;19912;-75
2021/11/18 00:04:42;;;;;;;;;;;4.50;99.90;;;;;;5090650;28;20359;-76
2021/11/18 00:07:08;;;;;;;;;;;4.50;99.90;;;;;;5090664;28;19909;-75
2021/11/18 00:09:33;;;;;;;;;;;4.50;99.90;;;;;;5074814;28;20023;-75
2021/11/18 00:11:59;;;;;;;;;;;4.50;99.90;;;;;;5089365;28;19912;-75
2021/11/18 00:14:24;;;;;;;;;;;4.50;99.90;;;;;;5094228;28;20412;-75
2021/11/18 00:16:50;;;;;;;;;;;4.50;99.90;;;;;;5094180;28;20489;-75
2021/11/18 00:19:16;;;;;;;;;;;4.50;99.90;;;;;;5076358;28;19908;-75
2021/11/18 00:21:42;;;;;;;;;;;4.50;99.90;;;;;;5093704;28;20022;-75
2021/11/18 00:24:09;;;;;;;;;;;4.50;99.90;;;;;;5093896;28;19961;-75
2021/11/18 00:26:36;;;;;;;;;;;4.50;99.90;;;;;;5093915;28;19916;-76
2021/11/18 00:29:05;;;;;;;;;;;4.50;99.90;;;;;;5075814;28;19936;-75
2021/11/18 00:31:32;;;;;;;;;;;4.50;99.90;;;;;;5093513;28;19991;-74
2021/11/18 00:33:58;;;;;;;;;;;4.60;99.90;;;;;;5094016;28;20379;-75
2021/11/18 00:36:24;;;;;;;;;;;4.60;99.90;;;;;;5093833;28;20012;-75
2021/11/18 00:38:49;;;;;;;;;;;4.60;99.90;;;;;;5073551;28;19912;-75
2021/11/18 00:41:16;;;;;;;;;;;4.60;99.90;;;;;;5091543;28;19916;-74
2021/11/18 00:43:42;;;;;;;;;;;4.60;99.90;;;;;;5093712;28;19915;-75
2021/11/18 00:46:07;;;;;;;;;;;4.60;99.90;;;;;;5093588;28;19922;-74
2021/11/18 00:48:33;;;;;;;;;;;4.60;99.90;;;;;;5093615;28;19999;-74
2021/11/18 00:51:00;;;;;;;;;;;4.60;99.90;;;;;;5093046;28;19923;-75
2021/11/18 00:53:26;;;;;;;;;;;4.50;99.90;;;;;;5093231;28;19908;-76
2021/11/18 00:55:51;;;;;;;;;;;4.50;99.90;;;;;;5093419;28;20328;-75
2021/11/18 00:58:17;;;;;;;;;;;4.60;99.90;;;;;;5093428;28;19951;-74
2021/11/18 01:00:44;;;;;;;;;;;4.60;99.90;;;;;;5086399;28;20359;-74
2021/11/18 01:03:10;;;;;;;;;;;4.60;99.90;;;;;;5093263;28;19908;-75
2021/11/18 01:05:37;;;;;;;;;;;4.50;99.90;;;;;;5093110;28;19922;-74
2021/11/18 01:08:03;;;;;;;;;;;4.60;99.90;;;;;;5092908;28;19958;-74
2021/11/18 01:10:32;;;;;;;;;;;4.60;99.90;;;;;;5081018;28;19916;-74
2021/11/18 01:12:58;;;;;;;;;;;4.60;99.90;;;;;;5092970;28;19934;-75
2021/11/18 01:15:25;;;;;;;;;;;4.60;99.90;;;;;;5093044;28;19912;-74
2021/11/18 01:17:51;;;;;;;;;;;4.60;99.90;;;;;;5093090;28;19914;-75
2021/11/18 01:20:18;;;;;;;;;;;4.60;99.90;;;;;;5091213;28;20042;-76
2021/11/18 01:22:43;;;;;;;;;;;4.60;99.90;;;;;;5092837;28;20377;-74
2021/11/18 01:25:09;;;;;;;;;;;4.60;99.90;;;;;;5092746;28;19912;-76
2021/11/18 01:27:35;;;;;;;;;;;4.60;99.90;;;;;;5074497;28;20294;-75
2021/11/18 01:30:01;;;;;;;;;;;4.60;99.90;;;;;;5092397;28;19908;-77
2021/11/18 01:32:26;;;;;;;;;;;4.60;99.90;;;;;;5092631;28;20381;-78
2021/11/18 01:34:52;;;;;;;;;;;4.60;99.90;;;;;;5092356;28;19908;-76
2021/11/18 01:37:18;;;;;;;;;;;4.60;99.90;;;;;;5092887;28;19908;-75
2021/11/18 01:39:43;;;;;;;;;;;4.60;99.90;;;;;;5087293;28;19908;-75
2021/11/18 01:42:09;;;;;;;;;;;4.70;99.90;;;;;;5086566;28;19954;-76
2021/11/18 01:44:37;;;;;;;;;;;4.60;99.90;;;;;;5092727;28;19916;-74
2021/11/18 01:47:03;;;;;;;;;;;4.70;99.90;;;;;;5092843;28;19908;-74
2021/11/18 01:49:29;;;;;;;;;;;4.70;99.90;;;;;;5092314;28;19912;-74
2021/11/18 01:51:56;;;;;;;;;;;4.70;99.90;;;;;;5091938;28;19912;-75
2021/11/18 01:54:24;;;;;;;;;;;4.70;99.90;;;;;;5092326;28;19915;-75
2021/11/18 01:56:50;;;;;;;;;;;4.70;99.90;;;;;;5091963;28;19909;-75
2021/11/18 01:59:26;;;;;;;;;;;4.70;99.90;;;;;;5092249;28;19908;-75
2021/11/18 02:01:54;;;;;;;;;;;4.70;99.90;;;;;;5092138;28;19908;-74
2021/11/18 02:04:21;;;;;;;;;;;4.70;99.90;;;;;;5092008;28;20354;-76
2021/11/18 02:06:49;;;;;;;;;;;4.70;99.90;;;;;;5092114;28;19953;-75
2021/11/18 02:09:15;;;;;;;;;;;4.70;99.90;;;;;;5088530;28;19912;-75
2021/11/18 02:11:46;;;;;;;;;;;4.70;99.90;;;;;;5090748;28;19920;-74
2021/11/18 02:14:14;;;;;;;;;;;4.70;99.90;;;;;;5091914;28;19969;-75
2021/11/18 02:16:40;;;;;;;;;;;4.70;99.90;;;;;;5091671;28;19908;-75
2021/11/18 02:19:08;;;;;;;;;;;4.70;99.90;;;;;;5091898;28;19922;-75
2021/11/18 02:21:33;;;;;;;;;;;4.70;99.90;;;;;;5091280;28;19908;-75
2021/11/18 02:24:01;;;;;;;;;;;4.70;99.90;;;;;;5091602;28;19912;-74
2021/11/18 02:26:27;;;;;;;;;;;4.70;99.90;;;;;;5091627;28;19952;-75
2021/11/18 02:28:54;;;;;;;;;;;4.70;99.90;;;;;;5091635;28;20397;-75
2021/11/18 02:31:19;;;;;;;;;;;4.70;99.90;;;;;;5090543;28;19908;-75
2021/11/18 02:33:45;;;;;;;;;;;4.70;99.90;;;;;;5092022;28;19938;-75
2021/11/18 02:36:11;;;;;;;;;;;4.70;99.90;;;;;;5091594;28;19908;-75
2021/11/18 02:38:36;;;;;;;;;;;4.70;99.90;;;;;;5091306;28;20290;-77
2021/11/18 02:41:02;;;;;;;;;;;4.70;99.90;;;;;;5088063;28;20375;-74
2021/11/18 02:43:28;;;;;;;;;;;4.70;99.90;;;;;;5091489;28;19908;-75
2021/11/18 02:45:53;;;;;;;;;;;4.70;99.90;;;;;;5091125;28;19920;-75
2021/11/18 02:48:19;;;;;;;;;;;4.70;99.90;;;;;;5091422;28;20389;-76
2021/11/18 02:50:55;;;;;;;;;;;4.70;99.90;;;;;;5090864;28;19916;-75
2021/11/18 02:53:21;;;;;;;;;;;4.70;99.90;;;;;;5091161;28;19908;-75
2021/11/18 02:55:48;;;;;;;;;;;4.80;99.90;;;;;;5091334;28;19915;-78
2021/11/18 02:58:14;;;;;;;;;;;4.70;99.90;;;;;;5091159;28;19908;-74
2021/11/18 03:00:47;;;;;;;;;;;4.70;99.90;;;;;;5090713;28;19916;-75
2021/11/18 03:03:13;;;;;;;;;;;4.70;99.90;;;;;;5091272;28;19908;-78
2021/11/18 03:05:38;;;;;;;;;;;4.70;99.90;;;;;;5091123;28;19919;-75
2021/11/18 03:08:04;;;;;;;;;;;4.70;99.90;;;;;;5090728;28;19920;-75
2021/11/18 03:10:29;;;;;;;;;;;4.70;99.90;;;;;;5080229;28;20283;-75
2021/11/18 03:12:56;;;;;;;;;;;4.70;99.90;;;;;;5087840;28;20402;-78
2021/11/18 03:15:22;;;;;;;;;;;4.70;99.90;;;;;;5091105;28;19916;-76
2021/11/18 03:17:48;;;;;;;;;;;4.70;99.90;;;;;;5091072;28;20355;-75
2021/11/18 03:20:14;;;;;;;;;;;4.70;99.90;;;;;;5072491;28;19919;-75
2021/11/18 03:22:40;;;;;;;;;;;4.70;99.90;;;;;;5090843;28;19961;-75
2021/11/18 03:25:06;;;;;;;;;;;4.70;99.90;;;;;;5090854;28;20362;-75
2021/11/18 03:27:32;;;;;;;;;;;4.70;99.90;;;;;;5090845;28;19909;-75
2021/11/18 03:29:57;;;;;;;;;;;4.70;99.90;;;;;;5090471;28;19915;-78
2021/11/18 03:32:23;;;;;;;;;;;4.70;99.90;;;;;;5090919;28;19908;-75
2021/11/18 03:34:48;;;;;;;;;;;4.70;99.90;;;;;;5091123;28;19908;-75
2021/11/18 03:37:14;;;;;;;;;;;4.70;99.90;;;;;;5090851;28;19912;-75
2021/11/18 03:39:39;;;;;;;;;;;4.80;99.90;;;;;;5086180;28;19924;-75
2021/11/18 03:42:06;;;;;;;;;;;4.80;99.90;;;;;;5090211;28;19908;-75
2021/11/18 03:44:32;;;;;;;;;;;4.80;99.90;;;;;;5094429;28;19912;-76
2021/11/18 03:47:00;;;;;;;;;;;4.80;99.90;;;;;;5094662;28;20378;-75
2021/11/18 03:49:26;;;;;;;;;;;4.80;99.90;;;;;;5094613;28;20267;-75
2021/11/18 03:51:52;;;;;;;;;;;4.80;99.90;;;;;;5094166;28;19915;-75
2021/11/18 03:54:19;;;;;;;;;;;4.80;99.90;;;;;;5094647;28;20122;-75
2021/11/18 03:56:45;;;;;;;;;;;4.80;99.90;;;;;;5094303;28;19973;-75
2021/11/18 03:59:14;;;;;;;;;;;4.80;99.90;;;;;;5094368;28;20358;-76
2021/11/18 04:01:39;;;;;;;;;;;4.80;99.90;;;;;;5087851;28;19915;-75
2021/11/18 04:04:06;;;;;;;;;;;4.70;99.90;;;;;;5076216;28;19908;-75
2021/11/18 04:06:31;;;;;;;;;;;4.70;99.90;;;;;;5094615;28;19957;-75
2021/11/18 04:08:57;;;;;;;;;;;4.60;99.90;;;;;;5094054;28;19908;-75
2021/11/18 04:11:23;;;;;;;;;;;4.50;99.90;;;;;;5086033;28;20286;-76
2021/11/18 04:13:48;;;;;;;;;;;4.60;99.90;;;;;;5094087;28;19916;-74
2021/11/18 04:16:14;;;;;;;;;;;4.50;99.90;;;;;;5094004;28;20355;-74
2021/11/18 04:18:39;;;;;;;;;;;4.50;99.90;;;;;;5094066;28;20362;-75
2021/11/18 04:21:05;;;;;;;;;;;4.50;99.90;;;;;;5093467;28;19955;-76
2021/11/18 04:23:30;;;;;;;;;;;4.50;99.90;;;;;;5093915;28;19954;-75
2021/11/18 04:25:56;;;;;;;;;;;4.50;99.90;;;;;;5094138;28;20296;-75
2021/11/18 04:28:22;;;;;;;;;;;4.50;99.90;;;;;;5093859;28;20362;-75
2021/11/18 04:30:48;;;;;;;;;;;4.50;99.90;;;;;;5093908;28;20282;-75
2021/11/18 04:33:14;;;;;;;;;;;4.50;99.90;;;;;;5093861;28;19908;-76
2021/11/18 04:35:39;;;;;;;;;;;4.50;99.90;;;;;;5093736;28;20021;-77
2021/11/18 04:38:05;;;;;;;;;;;4.40;99.90;;;;;;5093991;28;20202;-75
2021/11/18 04:40:32;;;;;;;;;;;4.40;99.90;;;;;;5091175;28;19909;-75
2021/11/18 04:42:58;;;;;;;;;;;4.50;99.90;;;;;;5093398;28;19916;-77
2021/11/18 04:45:24;;;;;;;;;;;4.40;99.90;;;;;;5093635;28;20343;-75
2021/11/18 04:47:49;;;;;;;;;;;4.40;99.90;;;;;;5093492;28;20011;-75
2021/11/18 04:50:15;;;;;;;;;;;4.40;99.90;;;;;;5092853;28;19956;-74
2021/11/18 04:52:42;;;;;;;;;;;4.40;99.90;;;;;;5093143;28;19908;-75
2021/11/18 04:55:08;;;;;;;;;;;4.40;99.90;;;;;;5074789;28;19908;-75
2021/11/18 04:57:34;;;;;;;;;;;4.40;99.90;;;;;;5093275;28;19908;-75
2021/11/18 05:00:00;;;;;;;;;;;4.30;99.90;;;;;;5092842;28;19995;-76
2021/11/18 05:02:25;;;;;;;;;;;4.40;99.90;;;;;;5093125;28;20424;-75
2021/11/18 05:04:52;;;;;;;;;;;4.40;99.90;;;;;;5093118;28;20011;-75
2021/11/18 05:07:18;;;;;;;;;;;4.40;99.90;;;;;;5093042;28;19912;-75
2021/11/18 05:09:45;;;;;;;;;;;4.30;99.90;;;;;;5088352;28;19966;-74
2021/11/18 05:12:11;;;;;;;;;;;4.40;99.90;;;;;;5091903;28;19912;-74
2021/11/18 05:14:36;;;;;;;;;;;4.40;99.90;;;;;;5092992;28;19915;-74
2021/11/18 05:17:02;;;;;;;;;;;4.40;99.90;;;;;;5092828;28;19953;-74
2021/11/18 05:19:27;;;;;;;;;;;4.50;99.90;;;;;;5092722;28;19961;-74
2021/11/18 05:21:53;;;;;;;;;;;4.50;99.90;;;;;;5092263;28;20074;-74
2021/11/18 05:24:19;;;;;;;;;;;4.50;99.90;;;;;;5092679;28;19912;-74
2021/11/18 05:26:44;;;;;;;;;;;4.60;99.90;;;;;;5092789;28;19955;-74
2021/11/18 05:29:10;;;;;;;;;;;4.70;99.90;;;;;;5092472;28;20312;-74
2021/11/18 05:31:35;;;;;;;;;;;4.70;99.90;;;;;;5092023;28;20378;-74
2021/11/18 05:34:01;;;;;;;;;;;4.70;99.90;;;;;;5092500;28;19908;-74
2021/11/18 05:36:27;;;;;;;;;;;4.70;99.90;;;;;;5092476;28;20270;-74
2021/11/18 05:38:52;;;;;;;;;;;4.70;99.90;;;;;;5090677;28;19912;-74
2021/11/18 05:41:18;;;;;;;;;;;4.80;99.90;;;;;;5086895;28;19954;-74
2021/11/18 05:43:44;;;;;;;;;;;4.80;99.90;;;;;;5092839;28;19916;-74
2021/11/18 05:46:10;;;;;;;;;;;4.70;99.90;;;;;;5092279;28;19958;-74
2021/11/18 05:48:37;;;;;;;;;;;4.70;99.90;;;;;;5074028;28;19954;-74
2021/11/18 05:51:03;;;;;;;;;;;4.60;99.90;;;;;;5091621;28;19908;-74
2021/11/18 05:53:33;;;;;;;;;;;4.60;99.90;;;;;;5092135;28;20303;-74
2021/11/18 05:56:00;;;;;;;;;;;4.60;99.90;;;;;;5092184;28;19909;-74
2021/11/18 05:58:26;;;;;;;;;;;4.50;99.90;;;;;;5091807;28;19943;-74
2021/11/18 06:00:52;;;;;;;;;;;4.60;99.90;;;;;;5091645;28;19947;-74
2021/11/18 06:03:17;;;;;;;;;;;4.70;99.90;;;;;;5092080;28;19930;-74
2021/11/18 06:05:43;;;;;;;;;;;4.70;99.90;;;;;;5072988;28;19912;-74
2021/11/18 06:08:08;;;;;;;;;;;4.80;99.90;;;;;;5091098;28;19912;-74
2021/11/18 06:10:34;;;;;;;;;;;4.80;99.90;;;;;;5089951;28;19919;-74
2021/11/18 06:13:00;;;;;;;;;;;4.80;99.90;;;;;;5091844;28;19908;-74
2021/11/18 06:15:26;;;;;;;;;;;4.80;99.90;;;;;;5091887;28;19916;-74
2021/11/18 06:17:52;;;;;;;;;;;4.80;99.90;;;;;;5091829;28;19915;-75
2021/11/18 06:20:18;;;;;;;;;;;4.90;99.90;;;;;;5072971;28;19913;-74
2021/11/18 06:22:45;;;;;;;;;;;4.80;99.90;;;;;;5091763;28;20261;-74
2021/11/18 06:25:11;;;;;;;;;;;4.70;99.90;;;;;;5091685;28;19926;-74
2021/11/18 06:27:39;;;;;;;;;;;4.60;99.90;;;;;;5073500;28;20355;-73
2021/11/18 06:30:06;;;;;;;;;;;4.60;99.90;;;;;;5072927;28;19912;-73
2021/11/18 06:32:31;;;;;;;;;;;4.60;99.90;;;;;;5073464;28;20371;-74
2021/11/18 06:34:57;;;;;;;;;;;4.60;99.90;;;;;;5091429;28;19975;-74
2021/11/18 06:37:23;;;;;;;;;;;4.70;99.90;;;;;;5091505;28;20355;-73
2021/11/18 06:39:48;;;;;;;;;;;4.80;99.90;;;;;;5068240;28;19908;-73
2021/11/18 06:42:14;;;;;;;;;;;4.80;99.90;;;;;;5091137;28;19912;-74
2021/11/18 06:44:43;;;;;;;;;;;4.70;99.90;;;;;;5091420;28;19908;-74
2021/11/18 06:47:09;;;;;;;;;;;4.70;99.90;;;;;;5091371;28;19916;-73
2021/11/18 06:49:34;;;;;;;;;;;4.70;99.90;;;;;;5072995;28;19912;-74
2021/11/18 06:52:00;;;;;;;;;;;4.80;99.90;;;;;;5090965;28;19908;-74
2021/11/18 06:54:26;;;;;;;;;;;4.80;99.90;;;;;;5091506;28;20014;-74
2021/11/18 06:56:51;;;;;;;;;;;4.80;99.90;;;;;;5091283;28;19983;-74
2021/11/18 06:59:17;;;;;;;;;;;4.80;99.90;;;;;;5091258;28;19908;-73
2021/11/18 07:01:43;;;;;;;;;;;4.90;99.90;;;;;;5090781;28;19908;-74
2021/11/18 07:04:09;;;;;;;;;;;4.90;99.90;;;;;;5084431;28;19908;-74
2021/11/18 07:06:36;;;;;;;;;;;4.90;99.90;;;;;;5091005;28;19922;-74
2021/11/18 07:09:05;;;;;;;;;;;4.90;99.90;;;;;;5082922;28;20320;-73
2021/11/18 07:11:31;;;;;;;;;;;4.90;99.90;;;;;;5083594;28;19916;-74
2021/11/18 07:13:57;;;;;;;;;;;4.80;99.90;;;;;;5091143;28;19931;-73
2021/11/18 07:16:23;;;;;;;;;;;4.80;99.90;;;;;;5091379;28;19961;-74
2021/11/18 07:18:49;;;;;;;;;;;4.80;99.90;;;;;;5095035;28;19953;-74
2021/11/18 07:21:16;;;;;;;;;;;4.80;99.90;;;;;;5094677;28;19916;-74
2021/11/18 07:23:42;;;;;;;;;;;4.80;99.90;;;;;;5095191;28;19908;-73
2021/11/18 07:26:09;;;;;;;;;;;4.80;99.90;;;;;;5095088;28;19919;-73
2021/11/18 07:28:35;;;;;;;;;;;4.90;99.90;;;;;;5094963;28;19958;-73
2021/11/18 07:31:01;;;;;;;;;;;5.00;99.90;;;;;;5094442;28;19915;-73
2021/11/18 07:33:27;;;;;;;;;;;5.10;99.90;;;;;;5094786;28;19908;-74
2021/11/18 07:35:54;;;;;;;;;;;5.20;99.90;;;;;;5094945;28;20351;-74
2021/11/18 07:38:23;;;;;;;;;;;5.20;99.90;;;;;;5074565;28;19908;-74
2021/11/18 07:40:49;;;;;;;;;;;5.20;99.90;;;;;;5093903;28;19912;-74
2021/11/18 07:43:19;;;;;;;;;;;5.30;99.90;;;;;;5094712;28;19999;-73
2021/11/18 07:45:47;;;;;;;;;;;5.40;99.90;;;;;;5105412;28;20444;-73
2021/11/18 07:48:13;;;;;;;;;;;5.40;99.90;;;;;;5105768;28;19914;-73
2021/11/18 07:50:38;;;;;;;;;;;5.40;99.90;;;;;;5101852;28;19947;-73
2021/11/18 07:53:04;;;;;;;;;;;5.50;99.90;;;;;;5094684;28;19919;-74
2021/11/18 07:55:29;;;;;;;;;;;5.50;99.90;;;;;;5094501;28;19961;-74
2021/11/18 07:57:55;;;;;;;;;;;5.50;99.90;;;;;;5094509;28;19915;-74
2021/11/18 08:00:21;;;;;;;;;;;5.40;99.90;;;;;;5093837;28;20359;-74
2021/11/18 08:02:47;;;;;;;;;;;5.30;99.90;;;;;;5076033;28;19908;-73
2021/11/18 08:05:13;;;;;;;;;;;5.30;99.90;;;;;;5094313;28;19919;-74
2021/11/18 08:07:39;;;;;;;;;;;5.30;99.90;;;;;;5094255;28;19912;-74
2021/11/18 08:10:05;;;;;;;;;;;5.30;99.90;;;;;;5091293;28;19995;-74
2021/11/18 08:12:34;;;;;;;;;;;5.30;99.90;;;;;;5093895;28;19908;-73
2021/11/18 08:14:59;;;;;;;;;;;5.30;99.90;;;;;;5094002;28;19908;-74
2021/11/18 08:17:25;;;;;;;;;;;5.30;99.90;;;;;;5075703;28;19915;-73
2021/11/18 08:19:50;;;;;;;;;;;5.40;99.90;;;;;;5093509;28;19908;-74
2021/11/18 08:22:16;;;;;;;;;;;5.50;99.90;;;;;;5093757;28;19970;-74
2021/11/18 08:24:43;;;;;;;;;;;5.50;99.90;;;;;;5093801;28;19946;-74
2021/11/18 08:27:08;;;;;;;;;;;5.50;99.90;;;;;;5075818;28;19909;-74
2021/11/18 08:29:34;;;;;;;;;;;5.50;99.90;;;;;;5092927;28;19919;-74
2021/11/18 08:31:59;;;;;;;;;;;5.50;99.90;;;;;;5075220;28;19954;-74
2021/11/18 08:34:25;;;;;;;;;;;5.60;99.90;;;;;;5093702;28;19912;-74
2021/11/18 08:36:51;;;;;;;;;;;5.60;99.90;;;;;;5093721;28;19912;-74
2021/11/18 08:39:22;;;;;;;;;;;5.60;99.90;;;;;;5092260;28;19908;-73
2021/11/18 08:41:48;;;;;;;;;;;5.60;99.90;;;;;;5086969;28;19915;-73
2021/11/18 08:44:16;;;;;;;;;;;5.60;99.90;;;;;;5090853;28;19908;-74
2021/11/18 08:46:42;;;;;;;;;;;5.60;99.90;;;;;;5093136;28;19912;-74
2021/11/18 08:49:08;;;;;;;;;;;5.60;99.90;;;;;;5093316;28;19912;-73
2021/11/18 08:51:33;;;;;;;;;;;5.70;99.90;;;;;;5092765;28;19915;-74
2021/11/18 08:54:00;;;;;;;;;;;5.80;99.90;;;;;;5090329;28;20457;-74
2021/11/18 08:56:26;;;;;;;;;;;6.00;99.90;;;;;;5089870;28;20012;-74
2021/11/18 08:58:55;;;;;;;;;;;6.00;99.90;;;;;;5089664;28;19959;-74
2021/11/18 09:01:22;;;;;;;;;;;6.10;99.90;;;;;;5089364;28;19909;-74
2021/11/18 09:03:48;;;;;;;;;;;6.30;99.90;;;;;;5090135;28;19915;-74
2021/11/18 09:06:15;;;;;;;;;;;6.40;99.90;;;;;;5090565;28;20282;-74
2021/11/18 09:08:41;;;;;;;;;;;6.40;99.90;;;;;;5090234;28;19965;-74
2021/11/18 09:11:09;;;;;;;;;;;6.60;99.90;;;;;;5084557;28;19916;-74
2021/11/18 09:13:35;;;;;;;;;;;6.60;99.90;;;;;;5092798;28;19915;-73
2021/11/18 09:16:02;;;;;;;;;;;6.70;99.90;;;;;;5092808;28;19946;-73
2021/11/18 09:18:28;;;;;;;;;;;6.60;99.90;;;;;;5092731;28;20337;-74
2021/11/18 09:20:55;;;;;;;;;;;6.60;99.90;;;;;;5092372;28;20038;-74
2021/11/18 09:23:22;;;;;;;;;;;6.40;99.90;;;;;;5092810;28;19915;-74
2021/11/18 09:25:49;;;;;;;;;;;6.50;99.90;;;;;;5092455;28;19919;-74
2021/11/18 09:28:15;;;;;;;;;;;6.60;99.90;;;;;;5074204;28;19908;-74
2021/11/18 09:30:44;;;;;;;;;;;6.70;99.90;;;;;;5091774;28;19908;-74
2021/11/18 09:33:10;;;;;;;;;;;7.10;99.90;;;;;;5085565;28;20291;-74
2021/11/18 09:35:37;;;;;;;;;;;7.50;99.90;;;;;;5092454;28;19908;-74
2021/11/18 09:38:05;;;;;;;;;;;7.90;99.90;;;;;;5085922;28;19909;-74
2021/11/18 09:40:36;;;;;;;;;;;7.60;99.90;;;;;;5078595;28;20006;-74
2021/11/18 09:43:09;;;;;;;;;;;8.00;99.90;;;;;;5086226;28;20281;-74
2021/11/18 09:45:43;;;;;;;;;;;8.10;99.90;;;;;;5092082;28;19916;-74
2021/11/18 09:48:35;;;;;;;;;;;7.90;99.90;;;;;;5092293;28;20527;-74
2021/11/18 09:51:07;;;;;;;;;;;8.10;99.90;;;;;;5052658;28;19908;-75
2021/11/18 09:53:40;;;;;;;;;;;8.10;99.90;;;;;;5092029;28;19947;-75
2021/11/18 09:56:05;;;;;;;;;;;8.40;99.90;;;;;;5092042;28;19908;-74
2021/11/18 09:58:37;;;;;;;;;;;8.20;99.90;;;;;;5091718;28;19915;-75
2021/11/18 10:01:09;;;;;;;;;;;8.10;99.90;;;;;;5067558;28;20417;-75
2021/11/18 10:03:53;;;;;;;;;;;8.20;99.90;;;;;;5073691;28;19916;-75
2021/11/18 10:06:23;;;;;;;;;;;8.30;99.90;;;;;;5091794;28;19912;-75
2021/11/18 10:08:51;;;;;;;;;;;8.40;99.90;;;;;;5071371;28;19998;-75
2021/11/18 10:11:34;;;;;;;;;;;8.80;99.90;;;;;;5080500;28;20297;-73
2021/11/18 10:14:06;;;;;;;;;;;9.30;99.90;;;;;;5068931;28;19951;-75
2021/11/18 10:16:50;;;;;;;;;;;10.80;99.90;;;;;;5081841;28;19909;-73
2021/11/18 10:19:26;;;;;;;;;;;10.30;99.90;;;;;;5068689;28;20007;-73
2021/11/18 10:21:51;;;;;;;;;;;9.20;99.90;;;;;;5068823;28;20342;-73
2021/11/18 10:24:19;;;;;;;;;;;8.80;99.90;;;;;;5067112;28;19909;-74
2021/11/18 10:26:50;;;;;;;;;;;8.50;99.90;;;;;;5069181;28;20003;-73
2021/11/18 10:29:18;;;;;;;;;;;8.20;99.90;;;;;;5068383;28;20137;-74
2021/11/18 10:32:04;;;;;;;;;;;8.20;99.90;;;;;;5085050;28;20353;-74
2021/11/18 10:34:29;;;;;;;;;;;7.70;99.90;;;;;;5085975;28;19951;-73
2021/11/18 10:36:55;;;;;;;;;;;7.80;99.90;;;;;;5086474;28;19940;-73
2021/11/18 10:39:36;;;;;;;;;;;7.80;99.90;;;;;;5080153;28;19915;-73
2021/11/18 10:42:09;;;;;;;;;;;7.70;99.90;;;;;;5079683;28;19995;-74
2021/11/18 10:44:53;;;;;;;;;;;7.70;99.90;;;;;;5066766;28;19952;-73
2021/11/18 10:47:22;;;;;;;;;;;7.70;99.90;;;;;;5067510;28;20017;-73
2021/11/18 10:49:50;;;;;;;;;;;7.70;99.90;;;;;;5064636;28;19913;-76
2021/11/18 10:52:35;;;;;;;;;;;7.70;99.90;;;;;;5068134;28;19913;-76
2021/11/18 10:55:07;;;;;;;;;;;7.80;99.90;;;;;;5081209;28;19909;-73
2021/11/18 10:57:32;;;;;;;;;;;8.00;99.90;;;;;;5087178;28;19908;-74
2021/11/18 11:00:19;;;;;;;;;;;8.40;99.90;;;;;;5085716;28;20378;-74
2021/11/18 11:02:45;;;;;;;;;;;8.50;99.90;;;;;;5087230;28;19912;-73
2021/11/18 11:05:34;;;;;;;;;;;8.40;99.90;;;;;;5087269;28;20282;-74
2021/11/18 11:08:00;;;;;;;;;;;8.20;99.90;;;;;;5067591;28;20285;-74
2021/11/18 11:10:27;;;;;;;;;;;8.10;99.90;;;;;;5078228;28;19924;-74
2021/11/18 11:13:16;;;;;;;;;;;8.10;99.90;;;;;;5068111;28;19944;-74
2021/11/18 11:16:06;;;;;;;;;;;8.40;99.90;;;;;;5082550;28;19915;-74
2021/11/18 11:18:40;;;;;;;;;;;8.50;99.90;;;;;;5086932;28;19909;-74
2021/11/18 11:21:18;;;;;;;;;;;8.70;99.90;;;;;;5082610;28;19920;-74
2021/11/18 11:24:06;;;;;;;;;;;8.80;99.90;;;;;;5073381;28;19916;-74
2021/11/18 11:26:50;;;;;;;;;;;8.80;99.90;;;;;;5073395;28;19908;-74
2021/11/18 11:29:21;;;;;;;;;;;9.10;99.90;;;;;;5073142;28;20280;-74
2021/11/18 11:31:55;;;;;;;;;;;9.00;99.90;;;;;;5071588;28;19913;-74
2021/11/18 11:34:30;;;;;;;;;;;9.10;99.90;;;;;;5073271;28;19962;-74
2021/11/18 11:37:18;;;;;;;;;;;8.80;99.90;;;;;;5073048;28;19920;-74
2021/11/18 11:39:51;;;;;;;;;;;8.90;99.90;;;;;;5063379;28;19915;-74
2021/11/18 11:42:35;;;;;;;;;;;9.10;99.90;;;;;;5062520;28;19955;-73
2021/11/18 11:45:18;;;;;;;;;;;9.50;99.90;;;;;;5068307;28;20306;-74
2021/11/18 11:48:04;;;;;;;;;;;9.60;99.90;;;;;;5073050;28;19947;-74
2021/11/18 11:50:48;;;;;;;;;;;9.50;99.90;;;;;;5072437;28;19913;-74
2021/11/18 11:53:20;;;;;;;;;;;9.50;99.90;;;;;;5073569;28;19912;-75
2021/11/18 11:55:48;;;;;;;;;;;9.60;99.90;;;;;;5071565;28;20381;-75
2021/11/18 11:58:35;;;;;;;;;;;9.50;99.90;;;;;;5073013;28;19914;-75
2021/11/18 12:01:16;;;;;;;;;;;9.40;99.90;;;;;;5071048;28;19909;-75
2021/11/18 12:03:56;;;;;;;;;;;9.20;99.90;;;;;;5072527;28;19966;-75
2021/11/18 12:06:39;;;;;;;;;;;9.00;99.90;;;;;;5072427;28;19908;-76
2021/11/18 12:09:07;;;;;;;;;;;8.80;99.90;;;;;;5067116;28;20193;-75
2021/11/18 12:11:37;;;;;;;;;;;8.50;99.90;;;;;;5056638;28;20381;-75
2021/11/18 12:14:18;;;;;;;;;;;8.70;99.90;;;;;;5056519;28;19924;-75
2021/11/18 12:16:50;;;;;;;;;;;9.10;99.90;;;;;;5053599;28;19916;-75
2021/11/18 12:19:28;;;;;;;;;;;9.00;99.90;;;;;;5053524;28;19909;-75
2021/11/18 12:21:54;;;;;;;;;;;8.80;99.90;;;;;;5051965;28;19981;-75
2021/11/18 12:24:20;;;;;;;;;;;8.70;99.90;;;;;;5052334;28;19956;-74
2021/11/18 12:27:01;;;;;;;;;;;8.80;99.90;;;;;;5053585;28;19988;-75
2021/11/18 12:29:39;;;;;;;;;;;8.80;99.90;;;;;;5051943;28;20243;-75
2021/11/18 12:32:08;;;;;;;;;;;8.60;99.90;;;;;;5052218;28;20304;-76
2021/11/18 12:34:50;;;;;;;;;;;8.50;99.90;;;;;;5052665;28;19908;-75
2021/11/18 12:37:23;;;;;;;;;;;8.30;99.90;;;;;;5053520;28;20003;-76
2021/11/18 12:40:00;;;;;;;;;;;8.60;99.90;;;;;;5063050;28;19912;-76
2021/11/18 12:42:44;;;;;;;;;;;8.70;99.90;;;;;;5055197;28;19917;-76
2021/11/18 12:45:12;;;;;;;;;;;9.00;99.90;;;;;;5053134;28;20031;-76
2021/11/18 12:47:40;;;;;;;;;;;8.90;99.90;;;;;;5052947;28;19909;-76
2021/11/18 12:50:06;;;;;;;;;;;8.80;99.90;;;;;;5052456;28;20369;-76
2021/11/18 12:52:37;;;;;;;;;;;8.70;99.90;;;;;;5055617;28;19913;-76
2021/11/18 12:55:08;;;;;;;;;;;8.80;99.90;;;;;;5062213;28;19917;-76
2021/11/18 12:57:34;;;;;;;;;;;8.70;99.90;;;;;;5061330;28;19920;-75
2021/11/18 13:00:08;;;;;;;;;;;8.60;99.90;;;;;;5052445;28;20277;-76
2021/11/18 13:02:37;;;;;;;;;;;8.50;99.90;;;;;;5056460;28;20412;-75
2021/11/18 13:05:03;;;;;;;;;;;8.30;99.90;;;;;;5051443;28;19909;-76
2021/11/18 13:07:42;;;;;;;;;;;8.40;99.90;;;;;;5052976;28;19955;-75
2021/11/18 13:10:23;;;;;;;;;;;8.50;99.90;;;;;;5059061;28;19916;-76
2021/11/18 13:13:09;;;;;;;;;;;8.60;99.90;;;;;;5056028;28;19916;-76
2021/11/18 13:15:56;;;;;;;;;;;8.50;99.90;;;;;;5052547;28;19909;-75
2021/11/18 13:18:28;;;;;;;;;;;8.30;99.90;;;;;;5051283;28;20337;-76
2021/11/18 13:21:12;;;;;;;;;;;8.30;99.90;;;;;;5052691;28;19909;-75
2021/11/18 13:23:38;;;;;;;;;;;8.30;99.90;;;;;;5051609;28;20010;-76
2021/11/18 13:26:06;;;;;;;;;;;8.30;99.90;;;;;;5051229;28;19909;-75
2021/11/18 13:28:51;;;;;;;;;;;8.20;99.90;;;;;;5051387;28;19916;-76
2021/11/18 13:31:36;;;;;;;;;;;8.30;99.90;;;;;;5052098;28;19917;-76
2021/11/18 13:34:27;;;;;;;;;;;8.30;99.90;;;;;;5067411;28;19919;-76
2021/11/18 13:37:07;;;;;;;;;;;8.30;99.90;;;;;;5071524;28;19909;-75
2021/11/18 13:39:36;;;;;;;;;;;8.30;99.90;;;;;;5064883;28;20297;-76
2021/11/18 13:42:13;;;;;;;;;;;8.30;99.90;;;;;;5057915;28;19915;-76
2021/11/18 13:44:40;;;;;;;;;;;8.30;99.90;;;;;;5051289;28;19931;-75
2021/11/18 13:47:08;;;;;;;;;;;8.40;99.90;;;;;;5052738;28;19944;-76
2021/11/18 13:49:36;;;;;;;;;;;8.30;99.90;;;;;;5055238;28;19960;-75
2021/11/18 13:52:08;;;;;;;;;;;8.30;99.90;;;;;;5053521;28;20377;-76
2021/11/18 13:54:33;;;;;;;;;;;8.30;99.90;;;;;;5053336;28;19913;-75
2021/11/18 13:57:07;;;;;;;;;;;8.30;99.90;;;;;;5051295;28;20369;-75
2021/11/18 13:59:33;;;;;;;;;;;8.20;99.90;;;;;;5053781;28;20420;-76
2021/11/18 14:02:01;;;;;;;;;;;8.30;99.90;;;;;;5052235;28;19909;-76
2021/11/18 14:04:39;;;;;;;;;;;8.20;99.90;;;;;;5052261;28;19913;-76
2021/11/18 14:07:05;;;;;;;;;;;8.20;99.90;;;;;;5051735;28;20360;-76
2021/11/18 14:09:32;;;;;;;;;;;8.20;99.90;;;;;;5064298;28;19966;-76
2021/11/18 14:12:04;;;;;;;;;;;8.20;99.90;;;;;;5062175;28;19949;-75
2021/11/18 14:14:30;;;;;;;;;;;8.10;99.90;;;;;;5052170;28;20290;-75
2021/11/18 14:17:16;;;;;;;;;;;8.10;99.90;;;;;;5050579;28;19909;-76
2021/11/18 14:19:56;;;;;;;;;;;8.10;99.90;;;;;;5064904;28;19913;-76
2021/11/18 14:22:26;;;;;;;;;;;8.00;99.90;;;;;;5071209;28;19932;-76
2021/11/18 14:24:53;;;;;;;;;;;8.00;99.90;;;;;;5071252;28;19908;-76
2021/11/18 14:27:19;;;;;;;;;;;8.00;99.90;;;;;;5071293;28;19970;-76
2021/11/18 14:29:44;;;;;;;;;;;8.00;99.90;;;;;;5069728;28;20349;-76
2021/11/18 14:32:19;;;;;;;;;;;8.00;99.90;;;;;;5070453;28;19948;-76
2021/11/18 14:35:03;;;;;;;;;;;8.00;99.90;;;;;;5069628;28;19908;-76
2021/11/18 14:37:47;;;;;;;;;;;7.90;99.90;;;;;;5071192;28;20010;-75
2021/11/18 14:40:22;;;;;;;;;;;7.80;99.90;;;;;;5061975;28;19912;-75
2021/11/18 14:42:50;;;;;;;;;;;7.70;99.90;;;;;;5059722;28;19945;-76